createdAt,value
2019-04-01T00:03:59.719Z,3.91
2019-04-01T00:09:06.607Z,3.80
2019-04-01T00:14:12.157Z,3.85
2019-04-01T00:19:17.371Z,3.78
2019-04-01T00:24:22.524Z,3.69
2019-04-01T00:29:27.728Z,3.65
2019-04-01T00:34:32.885Z,3.56
2019-04-01T00:39:38.375Z,3.51
2019-04-01T00:44:43.823Z,3.38
2019-04-01T00:49:49.033Z,3.32
2019-04-01T00:54:54.474Z,3.28
2019-04-01T00:59:59.904Z,3.24
2019-04-01T01:05:06.013Z,3.20
2019-04-01T01:10:11.674Z,3.18
2019-04-01T01:15:17.833Z,3.04
2019-04-01T01:20:23.851Z,2.97
2019-04-01T01:25:29.005Z,2.84
2019-04-01T01:30:34.153Z,2.71
2019-04-01T01:35:39.309Z,2.67
2019-04-01T01:40:44.951Z,2.64
2019-04-01T01:45:50.117Z,2.67
2019-04-01T01:50:56.122Z,2.61
2019-04-01T01:56:02.643Z,2.58
2019-04-01T02:01:07.775Z,2.58
2019-04-01T02:06:12.997Z,2.49
2019-04-01T02:11:18.151Z,2.43
2019-04-01T02:16:23.669Z,2.39
2019-04-01T02:21:29.617Z,2.31
2019-04-01T02:26:35.737Z,2.20
2019-04-01T02:31:41.209Z,2.09
2019-04-01T02:36:46.392Z,2.10
2019-04-01T02:41:52.509Z,2.07
2019-04-01T02:46:58.489Z,2.00
2019-04-01T02:52:03.932Z,1.96
2019-04-01T02:57:09.077Z,1.88
2019-04-01T03:02:14.233Z,1.69
2019-04-01T03:07:19.377Z,1.62
2019-04-01T03:12:25.303Z,1.51
2019-04-01T03:17:30.468Z,1.44
2019-04-01T03:22:35.667Z,1.40
2019-04-01T03:27:40.823Z,1.32
2019-04-01T03:32:46.237Z,1.26
2019-04-01T03:37:51.764Z,1.22
2019-04-01T03:42:57.263Z,1.21
2019-04-01T03:48:03.479Z,1.20
2019-04-01T03:53:08.639Z,1.18
2019-04-01T03:58:14.737Z,1.21
2019-04-01T04:03:19.889Z,1.23
2019-04-01T04:08:25.045Z,1.20
2019-04-01T04:13:30.212Z,1.19
2019-04-01T04:18:35.391Z,1.11
2019-04-01T04:23:40.575Z,1.09
2019-04-01T04:28:45.846Z,1.06
2019-04-01T04:33:51.651Z,0.98
2019-04-01T04:38:56.814Z,0.93
2019-04-01T04:44:02.005Z,0.88
2019-04-01T04:49:07.535Z,0.84
2019-04-01T04:54:12.701Z,0.80
2019-04-01T04:59:17.803Z,0.78
2019-04-01T05:04:22.980Z,0.71
2019-04-01T05:09:28.375Z,0.71
2019-04-01T05:14:33.908Z,0.72
2019-04-01T05:19:39.482Z,0.71
2019-04-01T05:24:44.747Z,0.71
2019-04-01T05:29:52.172Z,0.78
2019-04-01T05:34:58.804Z,0.80
2019-04-01T05:40:05.246Z,0.83
2019-04-01T05:45:11.144Z,0.87
2019-04-01T05:50:16.383Z,0.93
2019-04-01T05:55:21.619Z,1.02
2019-04-01T06:00:54.767Z,1.07
2019-04-01T06:06:00.335Z,1.18
2019-04-01T06:11:05.837Z,1.32
2019-04-01T06:16:11.235Z,1.57
2019-04-01T06:21:17.495Z,1.64
2019-04-01T06:26:23.675Z,1.81
2019-04-01T06:31:29.172Z,1.95
2019-04-01T06:36:34.699Z,2.12
2019-04-01T06:41:39.866Z,2.26
2019-04-01T06:46:45.220Z,2.42
2019-04-01T06:51:50.378Z,2.54
2019-04-01T06:56:55.545Z,2.68
2019-04-01T07:02:00.815Z,2.81
2019-04-01T07:07:18.325Z,2.96
2019-04-01T07:12:13.025Z,3.18
2019-04-01T07:17:18.320Z,3.32
2019-04-01T07:22:24.063Z,3.54
2019-04-01T07:27:29.241Z,3.56
2019-04-01T07:32:34.658Z,3.70
2019-04-01T07:37:40.264Z,3.89
2019-04-01T07:42:45.534Z,4.17
2019-04-01T07:47:51.729Z,4.29
2019-04-01T07:52:58.572Z,4.54
2019-04-01T07:58:03.736Z,4.66
2019-04-01T08:03:08.898Z,4.87
2019-04-01T08:08:14.057Z,5.27
2019-04-01T08:13:19.275Z,5.67
2019-04-01T08:18:24.457Z,5.84
2019-04-01T08:23:31.006Z,6.07
2019-04-01T08:28:38.161Z,6.08
2019-04-01T08:33:43.335Z,6.18
2019-04-01T08:38:48.660Z,6.29
2019-04-01T08:43:53.964Z,6.41
2019-04-01T08:49:00.865Z,6.51
2019-04-01T08:54:06.343Z,6.48
2019-04-01T08:59:17.283Z,6.76
2019-04-01T09:04:23.404Z,6.92
2019-04-01T09:09:30.557Z,7.05
2019-04-01T09:14:36.256Z,7.24
2019-04-01T09:19:41.840Z,7.36
2019-04-01T09:24:47.030Z,7.64
2019-04-01T09:29:52.079Z,7.75
2019-04-01T09:34:57.377Z,7.88
2019-04-01T09:40:02.901Z,7.81
2019-04-01T09:45:08.579Z,7.87
2019-04-01T09:50:13.963Z,7.90
2019-04-01T09:55:19.294Z,8.09
2019-04-01T10:00:24.704Z,8.12
2019-04-01T10:05:30.500Z,8.32
2019-04-01T10:10:36.884Z,8.25
2019-04-01T10:15:43.610Z,8.37
2019-04-01T10:20:49.416Z,8.55
2019-04-01T10:25:54.590Z,8.73
2019-04-01T10:30:59.832Z,8.80
2019-04-01T10:36:05.166Z,8.88
2019-04-01T10:41:10.803Z,9.05
2019-04-01T10:46:16.053Z,9.03
2019-04-01T10:51:21.317Z,9.17
2019-04-01T10:56:26.889Z,9.50
2019-04-01T11:01:33.275Z,9.37
2019-04-01T11:06:39.639Z,9.60
2019-04-01T11:11:45.281Z,9.60
2019-04-01T11:16:50.575Z,9.60
2019-04-01T11:21:56.164Z,9.60
2019-04-01T11:27:01.401Z,9.87
2019-04-01T11:32:07.727Z,9.83
2019-04-01T11:37:13.173Z,10.10
2019-04-01T11:42:18.581Z,10.23
2019-04-01T11:47:23.952Z,10.31
2019-04-01T11:52:29.318Z,10.47
2019-04-01T11:57:34.550Z,10.37
2019-04-01T12:02:39.801Z,10.55
2019-04-01T12:07:45.053Z,10.63
2019-04-01T12:12:51.404Z,10.67
2019-04-01T12:17:58.286Z,10.62
2019-04-01T12:23:03.919Z,10.88
2019-04-01T12:28:09.223Z,11.27
2019-04-01T12:33:14.424Z,11.27
2019-04-01T12:38:19.794Z,11.25
2019-04-01T12:43:25.697Z,11.17
2019-04-01T12:48:31.034Z,11.67
2019-04-01T12:53:36.654Z,11.69
2019-04-01T12:58:41.919Z,11.57
2019-04-01T13:03:48.790Z,11.86
2019-04-01T13:08:54.092Z,11.95
2019-04-01T13:13:59.580Z,12.16
2019-04-01T13:19:04.842Z,12.38
2019-04-01T13:24:10.507Z,12.56
2019-04-01T13:29:16.208Z,12.57
2019-04-01T13:34:21.804Z,12.82
2019-04-01T13:39:27.132Z,13.18
2019-04-01T13:44:37.365Z,12.97
2019-04-01T13:49:40.073Z,13.29
2019-04-01T13:54:45.306Z,13.35
2019-04-01T13:59:51.764Z,13.20
2019-04-01T14:04:57.380Z,13.31
2019-04-01T14:10:02.726Z,13.81
2019-04-01T14:15:08.803Z,14.01
2019-04-01T14:20:14.099Z,14.07
2019-04-01T14:25:19.341Z,14.16
2019-04-01T14:30:25.607Z,13.87
2019-04-01T14:35:31.255Z,14.16
2019-04-01T14:40:37.091Z,14.15
2019-04-01T14:45:42.394Z,14.55
2019-04-01T14:50:47.642Z,14.36
2019-04-01T14:55:53.826Z,14.23
2019-04-01T15:00:59.210Z,14.38
2019-04-01T15:06:04.804Z,14.26
2019-04-01T15:11:09.985Z,14.37
2019-04-01T15:16:15.237Z,14.35
2019-04-01T15:21:21.778Z,14.18
2019-04-01T15:26:27.362Z,14.56
2019-04-01T15:31:33.703Z,14.02
2019-04-01T15:36:38.970Z,13.93
2019-04-01T15:41:45.334Z,13.85
2019-04-01T15:46:51.442Z,13.84
2019-04-01T15:51:57.840Z,13.84
2019-04-01T15:57:03.089Z,13.87
2019-04-01T16:02:08.343Z,13.73
2019-04-01T16:07:13.876Z,13.50
2019-04-01T16:12:19.505Z,13.70
2019-04-01T16:17:25.872Z,13.20
2019-04-01T16:22:31.171Z,13.07
2019-04-01T16:27:37.494Z,12.98
2019-04-01T16:32:42.768Z,12.91
2019-04-01T16:37:48.014Z,12.59
2019-04-01T16:42:55.665Z,12.50
2019-04-01T16:48:00.349Z,12.24
2019-04-01T16:53:05.723Z,11.83
2019-04-01T16:58:10.977Z,11.61
2019-04-01T17:03:16.320Z,11.37
2019-04-01T17:08:21.932Z,11.18
2019-04-01T17:13:27.490Z,10.92
2019-04-01T17:18:33.123Z,10.72
2019-04-01T17:23:41.697Z,10.41
2019-04-01T17:28:45.623Z,10.16
2019-04-01T17:33:51.178Z,9.93
2019-04-01T17:38:56.420Z,9.67
2019-04-01T17:44:01.729Z,9.34
2019-04-01T17:49:07.092Z,9.10
2019-04-01T17:54:12.346Z,8.89
2019-04-01T17:59:17.716Z,8.71
2019-04-01T18:04:23.060Z,8.48
2019-04-01T18:09:30.998Z,8.30
2019-04-01T18:14:36.408Z,8.16
2019-04-01T18:19:42.473Z,7.98
2019-04-01T18:24:48.258Z,7.90
2019-04-01T18:29:53.804Z,7.76
2019-04-01T18:34:59.041Z,7.67
2019-04-01T18:40:04.869Z,7.56
2019-04-01T18:45:10.840Z,7.50
2019-04-01T18:50:16.822Z,7.45
2019-04-01T18:55:22.438Z,7.35
2019-04-01T19:00:27.886Z,7.27
2019-04-01T19:05:33.266Z,7.18
2019-04-01T19:10:39.476Z,7.08
2019-04-01T19:15:45.348Z,6.99
2019-04-01T19:20:56.933Z,6.93
2019-04-01T19:25:58.227Z,6.83
2019-04-01T19:31:03.889Z,6.78
2019-04-01T19:36:10.202Z,6.76
2019-04-01T19:41:15.755Z,6.66
2019-04-01T19:46:21.002Z,6.58
2019-04-01T19:51:26.179Z,6.48
2019-04-01T19:56:31.731Z,6.35
2019-04-01T20:01:37.384Z,6.33
2019-04-01T20:06:42.636Z,6.19
2019-04-01T20:11:47.990Z,6.10
2019-04-01T20:16:53.499Z,6.04
2019-04-01T20:21:58.697Z,6.01
2019-04-01T20:27:04.191Z,5.93
2019-04-01T20:32:17.304Z,5.91
2019-04-01T20:37:16.747Z,5.84
2019-04-01T20:42:23.120Z,5.76
2019-04-01T20:47:29.037Z,5.67
2019-04-01T20:52:34.751Z,5.62
2019-04-01T20:57:39.988Z,5.57
2019-04-01T21:02:45.475Z,5.51
2019-04-01T21:07:50.767Z,5.49
2019-04-01T21:12:55.957Z,5.46
2019-04-01T21:18:01.238Z,5.36
2019-04-01T21:23:07.619Z,5.26
2019-04-01T21:28:12.912Z,5.22
2019-04-01T21:33:18.232Z,5.22
2019-04-01T21:38:23.402Z,5.14
2019-04-01T21:43:29.555Z,5.09
2019-04-01T21:48:35.359Z,5.03
2019-04-01T21:53:40.531Z,4.93
2019-04-01T21:58:47.141Z,4.85
2019-04-01T22:03:52.393Z,4.82
2019-04-01T22:08:58.458Z,4.82
2019-04-01T22:14:03.992Z,4.78
2019-04-01T22:19:09.899Z,4.65
2019-04-01T22:24:15.456Z,4.63
2019-04-01T22:29:20.757Z,4.56
2019-04-01T22:34:26.060Z,4.52
2019-04-01T22:39:32.893Z,4.53
2019-04-01T22:44:38.617Z,4.46
2019-04-01T22:49:44.071Z,4.38
2019-04-01T22:54:50.753Z,4.31
2019-04-01T22:59:56.488Z,4.13
2019-04-01T23:05:03.409Z,4.02
2019-04-01T23:10:10.408Z,3.88
2019-04-01T23:15:15.810Z,3.70
2019-04-01T23:20:22.729Z,3.59
2019-04-01T23:25:28.153Z,3.43
2019-04-01T23:30:33.517Z,3.42
2019-04-01T23:35:39.555Z,3.34
2019-04-01T23:40:45.054Z,3.26
2019-04-01T23:45:50.498Z,3.19
2019-04-01T23:50:56.929Z,3.10
2019-04-01T23:56:02.474Z,3.04
